Time;durP1;ratioP1;P1;durP2;ratioP2;P2;SDS_P1;SDS_P2;PMS_P1;PMS_P2;Temp;Humidity;BMP_temperature;BMP_pressure;BME280_temperature;BME280_humidity;BME280_pressure;Samples;Min_cycle;Max_cycle;Signal;HPM_P1;HPM_P2
2020/12/29 00:01:57;;;;;;;1.70;1.52;;;;;;;5.00;81.28;93421.44;5060086;28;20086;-84
2020/12/29 00:04:25;;;;;;;1.55;1.45;;;;;;;4.89;82.79;93394.56;5060009;28;20052;-85
2020/12/29 00:06:55;;;;;;;1.83;1.65;;;;;;;5.15;82.18;93427.31;5060044;28;20412;-83
2020/12/29 00:09:23;;;;;;;1.33;1.23;;;;;;;5.34;82.05;93438.28;5042225;28;20037;-85
2020/12/29 00:11:49;;;;;;;2.15;1.50;;;;;;;5.29;82.83;93427.53;5059887;28;20408;-85
2020/12/29 00:14:17;;;;;;;2.72;1.42;;;;;;;5.08;83.38;93410.94;5042303;28;20032;-85
2020/12/29 00:16:43;;;;;;;1.70;1.20;;;;;;;5.16;83.17;93426.06;5042126;28;20408;-84
2020/12/29 00:19:15;;;;;;;1.70;1.40;;;;;;;5.14;83.18;93414.34;5042102;28;20035;-85
2020/12/29 00:21:41;;;;;;;2.67;1.50;;;;;;;5.15;83.63;93413.13;5042152;28;20116;-85
2020/12/29 00:24:08;;;;;;;1.65;1.42;;;;;;;5.10;83.54;93417.28;5041772;28;20025;-85
2020/12/29 00:26:34;;;;;;;1.65;1.40;;;;;;;5.05;84.41;93418.03;5059656;28;20404;-84
2020/12/29 00:28:59;;;;;;;1.92;1.60;;;;;;;5.11;83.88;93418.75;5059536;28;20090;-84
2020/12/29 00:31:25;;;;;;;3.45;2.10;;;;;;;4.68;83.95;93349.09;5041766;28;20025;-85
2020/12/29 00:33:56;;;;;;;3.33;2.30;;;;;;;5.00;84.28;93394.53;5059571;28;20419;-86
2020/12/29 00:36:21;;;;;;;2.58;2.20;;;;;;;4.96;85.25;93386.00;5041810;28;20028;-85
2020/12/29 00:38:47;;;;;;;2.67;2.28;;;;;;;4.76;85.07;93354.00;5059494;28;20025;-85
2020/12/29 00:41:14;;;;;;;3.22;2.30;;;;;;;4.95;84.21;93385.28;5059333;28;20079;-84
2020/12/29 00:43:40;;;;;;;2.72;2.10;;;;;;;5.03;84.31;93388.19;5059830;28;20420;-84
2020/12/29 00:46:10;;;;;;;1.50;1.40;;;;;;;4.99;84.29;93385.00;5063714;28;20151;-85
2020/12/29 00:48:36;;;;;;;1.40;1.30;;;;;;;4.73;84.03;93344.94;5061619;28;20426;-85
2020/12/29 00:51:07;;;;;;;1.75;1.65;;;;;;;4.83;85.26;93367.69;5061556;28;20020;-85
2020/12/29 00:53:33;;;;;;;3.55;1.50;;;;;;;4.70;84.82;93343.25;5079208;28;20093;-85
2020/12/29 00:56:03;;;;;;;1.83;1.40;;;;;;;4.95;84.61;93379.16;5061372;28;20417;-85
2020/12/29 00:58:29;;;;;;;1.50;1.40;;;;;;;4.89;84.14;93378.44;5067822;28;20053;-85
2020/12/29 01:00:55;;;;;;;3.42;1.73;;;;;;;5.07;83.90;93399.44;5058937;28;20035;-85
2020/12/29 01:03:20;;;;;;;3.40;1.80;;;;;;;5.02;84.69;93391.38;5041339;28;20025;-85
2020/12/29 01:05:46;;;;;;;2.05;1.73;;;;;;;4.96;85.24;93386.00;5058883;28;20029;-85
2020/12/29 01:08:12;;;;;;;2.15;1.70;;;;;;;4.77;84.78;93358.88;5059026;28;20107;-85
2020/12/29 01:10:38;;;;;;;1.85;1.35;;;;;;;4.83;83.94;93356.19;5058946;28;20056;-85
2020/12/29 01:13:04;;;;;;;2.45;1.60;;;;;;;4.86;84.39;93360.59;5058651;28;20076;-85
2020/12/29 01:15:29;;;;;;;2.55;1.60;;;;;;;4.74;84.93;93346.44;5058687;28;20024;-84
2020/12/29 01:17:55;;;;;;;6.35;1.80;;;;;;;4.81;85.45;93355.97;5041075;28;20043;-85
2020/12/29 01:20:24;;;;;;;4.93;2.22;;;;;;;4.84;85.38;93358.38;5041050;28;20316;-85
2020/12/29 01:22:51;;;;;;;2.65;2.20;;;;;;;4.83;84.76;93373.06;5058644;28;20028;-85
2020/12/29 01:25:16;;;;;;;4.93;2.80;;;;;;;4.55;85.21;93340.81;5058481;28;20408;-85
2020/12/29 01:27:42;;;;;;;6.93;2.80;;;;;;;4.67;85.21;93358.41;5037982;28;20022;-85
2020/12/29 01:30:07;;;;;;;4.53;2.80;;;;;;;4.65;84.77;93350.09;5038549;28;20100;-85
2020/12/29 01:32:36;;;;;;;5.88;3.20;;;;;;;4.80;85.03;93376.75;5037713;28;20033;-85
2020/12/29 01:35:02;;;;;;;6.22;3.75;;;;;;;4.80;83.89;93381.38;5037414;28;20354;-85
2020/12/29 01:37:28;;;;;;;6.65;3.60;;;;;;;4.63;84.38;93362.56;5037297;28;20026;-85
2020/12/29 01:39:54;;;;;;;3.13;1.90;;;;;;;4.47;83.42;93321.03;5020859;28;20021;-85
2020/12/29 01:42:19;;;;;;;3.10;2.80;;;;;;;4.67;83.37;93344.97;5040650;28;20416;-85
2020/12/29 01:44:45;;;;;;;1.83;1.30;;;;;;;3.97;84.42;93240.47;5058281;28;20427;-85
2020/12/29 01:47:10;;;;;;;0.80;0.80;;;;;;;4.49;83.65;93321.28;5040519;28;20028;-85
2020/12/29 01:49:44;;;;;;;1.20;0.70;;;;;;;4.58;84.78;93326.41;5058189;28;20293;-85
2020/12/29 01:52:09;;;;;;;1.08;0.70;;;;;;;4.47;84.11;93315.66;5040015;28;20035;-85
2020/12/29 01:54:35;;;;;;;3.60;1.20;;;;;;;4.12;83.85;93262.44;5058008;28;20096;-85
2020/12/29 01:57:00;;;;;;;2.05;1.08;;;;;;;4.51;84.04;93318.81;5040164;28;20064;-85
2020/12/29 01:59:26;;;;;;;1.50;1.00;;;;;;;4.36;83.28;93316.38;5040419;28;20104;-85
2020/12/29 02:01:51;;;;;;;2.20;0.95;;;;;;;4.11;84.71;93274.41;5057863;28;20024;-85
2020/12/29 02:04:17;;;;;;;1.95;1.00;;;;;;;4.05;84.55;93252.91;5057837;28;20083;-85
2020/12/29 02:06:42;;;;;;;5.05;2.70;;;;;;;4.22;83.74;93265.59;5040232;28;20078;-85
2020/12/29 02:09:09;;;;;;;1.92;1.27;;;;;;;4.46;84.33;93295.38;5058406;28;20108;-85
2020/12/29 02:11:35;;;;;;;1.50;1.10;;;;;;;4.29;84.04;93257.78;5040128;28;20378;-85
2020/12/29 02:14:01;;;;;;;1.95;0.88;;;;;;;4.09;83.73;93248.00;5057572;28;20401;-86
2020/12/29 02:16:27;;;;;;;2.08;0.65;;;;;;;4.17;84.48;93265.13;5057623;28;20028;-85
2020/12/29 02:18:53;;;;;;;1.95;0.95;;;;;;;4.08;84.12;93248.50;5040256;28;20408;-85
2020/12/29 02:21:18;;;;;;;3.65;1.30;;;;;;;4.04;83.51;93266.81;5057487;28;20024;-86
2020/12/29 02:23:44;;;;;;;1.75;1.30;;;;;;;3.92;84.24;93239.22;5039968;28;20033;-85
2020/12/29 02:26:09;;;;;;;3.13;1.15;;;;;;;4.23;84.64;93289.28;5039761;28;20025;-85
2020/12/29 02:28:34;;;;;;;1.00;0.80;;;;;;;3.98;83.15;93263.41;5057311;28;20025;-85
2020/12/29 02:31:00;;;;;;;2.38;0.65;;;;;;;3.91;82.73;93243.13;5039726;28;20166;-85
2020/12/29 02:33:25;;;;;;;0.63;0.60;;;;;;;3.96;82.99;93263.16;5057346;28;20408;-85
2020/12/29 02:35:51;;;;;;;1.45;0.80;;;;;;;4.07;84.12;93292.72;5039644;28;20115;-86
2020/12/29 02:38:24;;;;;;;1.13;0.65;;;;;;;3.81;84.76;93250.69;5039637;28;20028;-86
2020/12/29 02:40:50;;;;;;;1.02;0.70;;;;;;;3.76;85.33;93264.13;5039525;28;20324;-85
2020/12/29 02:43:16;;;;;;;1.02;0.88;;;;;;;3.73;85.50;93236.31;5057062;28;20025;-85
2020/12/29 02:45:42;;;;;;;1.83;0.80;;;;;;;3.93;84.94;93254.84;5057149;28;20021;-85
2020/12/29 02:48:08;;;;;;;1.00;0.90;;;;;;;3.84;84.75;93228.25;5039391;28;20028;-85
2020/12/29 02:50:33;;;;;;;0.85;0.70;;;;;;;4.03;84.48;93215.06;5039455;28;20020;-85
2020/12/29 02:52:59;;;;;;;2.25;0.60;;;;;;;3.85;83.46;93192.13;5056822;28;20036;-85
2020/12/29 02:55:25;;;;;;;1.02;0.70;;;;;;;4.18;84.67;93253.13;5060997;28;20323;-85
2020/12/29 02:57:51;;;;;;;1.17;0.88;;;;;;;4.14;84.94;93247.28;5076667;28;20048;-85
2020/12/29 03:00:16;;;;;;;0.63;0.60;;;;;;;4.12;84.26;93227.50;5077167;28;20020;-86
2020/12/29 03:02:42;;;;;;;1.42;1.10;;;;;;;4.01;84.94;93214.09;5077525;28;20046;-85
2020/12/29 03:05:07;;;;;;;1.17;0.70;;;;;;;4.18;84.12;93247.78;5075006;28;20032;-85
2020/12/29 03:07:33;;;;;;;1.10;1.00;;;;;;;3.67;84.68;93163.84;5076867;28;20032;-85
2020/12/29 03:09:58;;;;;;;1.65;0.90;;;;;;;4.03;84.89;93219.69;5058497;28;20028;-85
2020/12/29 03:12:24;;;;;;;3.60;2.03;;;;;;;4.05;84.37;93233.34;5039761;28;20286;-86
2020/12/29 03:14:49;;;;;;;5.57;2.58;;;;;;;3.73;83.52;93190.66;5057374;28;20025;-85
2020/12/29 03:17:15;;;;;;;6.05;2.72;;;;;;;3.76;84.35;93215.78;5057395;28;20158;-85
2020/12/29 03:19:40;;;;;;;3.38;1.90;;;;;;;3.85;84.44;93223.63;5056850;28;20032;-86
2020/12/29 03:22:05;;;;;;;2.90;1.90;;;;;;;3.66;84.25;93201.88;5039320;28;20029;-86
2020/12/29 03:24:31;;;;;;;1.67;1.15;;;;;;;3.61;84.07;93191.88;5039094;28;20021;-85
2020/12/29 03:26:56;;;;;;;4.10;2.58;;;;;;;3.92;85.05;93231.91;5056754;28;20025;-85
2020/12/29 03:29:22;;;;;;;7.18;5.30;;;;;;;3.39;85.46;93157.72;5039036;28;20079;-86
2020/12/29 03:31:48;;;;;;;9.93;7.40;;;;;;;3.58;86.04;93190.19;5056036;28;20297;-86
2020/12/29 03:34:56;;;;;;;8.98;6.75;;;;;;;3.67;86.19;93206.78;5039107;28;20107;-86
2020/12/29 03:37:05;;;;;;;8.10;4.88;;;;;;;3.48;85.93;93189.69;5048627;28;20037;-86
2020/12/29 03:39:31;;;;;;;6.05;4.13;;;;;;;3.53;86.12;93188.94;5038939;28;20434;-85
2020/12/29 03:41:56;;;;;;;12.88;7.47;;;;;;;3.50;85.60;93195.28;5038614;28;20108;-86
2020/12/29 03:44:21;;;;;;;10.73;7.00;;;;;;;3.58;85.24;93208.97;5038678;28;20025;-86
2020/12/29 03:46:47;;;;;;;11.95;6.68;;;;;;;3.48;85.92;93202.38;5038929;28;20025;-85
2020/12/29 03:49:12;;;;;;;8.18;5.20;;;;;;;3.45;85.54;93208.69;5056535;28;20067;-86
2020/12/29 03:51:38;;;;;;;6.82;4.03;;;;;;;3.59;85.82;93229.22;5038892;28;20021;-86
2020/12/29 03:54:03;;;;;;;4.90;2.55;;;;;;;3.74;85.17;93259.25;5038899;28;20025;-85
2020/12/29 03:56:29;;;;;;;2.97;2.05;;;;;;;3.45;84.80;93220.16;5038691;28;20025;-86
2020/12/29 03:58:54;;;;;;;2.72;2.47;;;;;;;3.62;85.20;93257.75;5056364;28;20059;-86
2020/12/29 04:01:20;;;;;;;4.30;2.75;;;;;;;3.66;85.17;93272.41;5038747;28;20078;-86
2020/12/29 04:03:45;;;;;;;5.22;3.28;;;;;;;3.44;85.41;93239.44;5056881;28;20032;-85
2020/12/29 04:06:12;;;;;;;10.18;4.15;;;;;;;3.39;86.07;93238.19;5056545;28;20029;-85
2020/12/29 04:08:37;;;;;;;4.45;2.58;;;;;;;3.60;85.83;93265.56;5056329;28;20047;-86
2020/12/29 04:11:03;;;;;;;3.53;2.40;;;;;;;3.41;85.80;93239.19;5038654;28;20163;-86
2020/12/29 04:13:28;;;;;;;4.00;2.50;;;;;;;3.44;86.01;93250.91;5038802;28;20021;-86
2020/12/29 04:15:54;;;;;;;3.20;2.38;;;;;;;3.59;85.67;93280.94;5057961;28;20065;-86
2020/12/29 04:18:19;;;;;;;3.03;2.60;;;;;;;3.68;85.79;93285.34;5042171;28;20462;-86
2020/12/29 04:20:44;;;;;;;3.35;2.53;;;;;;;3.31;85.53;93248.69;5042252;28;20120;-86
2020/12/29 04:23:10;;;;;;;2.45;1.65;;;;;;;3.40;85.05;93261.84;5059805;28;20029;-85
2020/12/29 04:25:35;;;;;;;2.78;1.30;;;;;;;3.35;86.34;93276.00;5041740;28;20071;-86
2020/12/29 04:28:01;;;;;;;3.53;1.00;;;;;;;3.44;85.18;93269.69;5059726;28;20055;-86
2020/12/29 04:30:26;;;;;;;1.00;0.77;;;;;;;3.68;84.61;93304.16;5059696;28;20021;-86
2020/12/29 04:32:51;;;;;;;3.58;2.28;;;;;;;3.55;84.78;93307.28;5041914;28;20031;-85
2020/12/29 04:35:17;;;;;;;3.60;2.88;;;;;;;3.59;83.73;93297.03;5059612;28;20020;-86
2020/12/29 04:37:43;;;;;;;5.38;3.50;;;;;;;3.45;84.04;93248.94;5041915;28;20056;-85
2020/12/29 04:40:08;;;;;;;2.60;1.85;;;;;;;3.74;83.58;93296.09;5059527;28;20021;-86
2020/12/29 04:42:35;;;;;;;3.42;2.30;;;;;;;3.44;83.49;93239.44;5059493;28;20021;-86
2020/12/29 04:45:01;;;;;;;3.63;2.60;;;;;;;3.42;84.29;93247.97;5041677;28;20107;-85
2020/12/29 04:47:28;;;;;;;2.70;2.15;;;;;;;3.81;83.85;93300.97;5041641;28;20035;-85
2020/12/29 04:49:55;;;;;;;1.65;1.05;;;;;;;3.61;85.50;93289.22;5041797;28;20024;-85
2020/12/29 04:52:21;;;;;;;1.02;0.90;;;;;;;3.45;86.62;93273.09;5059292;28;20108;-85
2020/12/29 04:54:52;;;;;;;1.77;1.20;;;;;;;3.55;84.81;93271.66;5059211;28;20075;-85
2020/12/29 04:57:17;;;;;;;;;;;;;;;3.92;86.07;93314.41;5041392;28;20106;-85
2020/12/29 04:59:42;;;;;;;2.08;1.52;;;;;;;3.47;86.05;93251.88;5041542;28;20262;-85
2020/12/29 05:02:08;;;;;;;1.85;1.73;;;;;;;3.72;85.50;93280.47;5059054;28;20401;-85
2020/12/29 05:04:33;;;;;;;2.00;1.50;;;;;;;3.73;85.59;93278.50;5059481;28;20335;-85
2020/12/29 05:06:59;;;;;;;2.10;1.90;;;;;;;3.79;86.05;93314.91;5041669;28;20036;-86
2020/12/29 05:09:26;;;;;;;2.60;2.30;;;;;;;3.74;86.49;93317.56;5041409;28;20432;-85
2020/12/29 05:11:52;;;;;;;2.10;1.98;;;;;;;4.06;86.39;93359.13;5041242;28;20032;-86
2020/12/29 05:14:18;;;;;;;8.63;5.78;;;;;;;4.07;86.19;93368.66;5058846;28;20028;-86
2020/12/29 05:16:44;;;;;;;3.08;1.90;;;;;;;4.12;85.57;93367.94;5041167;28;20037;-85
2020/12/29 05:19:13;;;;;;;1.38;1.27;;;;;;;3.97;85.27;93343.25;5023458;28;20546;-85
2020/12/29 05:21:43;;;;;;;1.35;1.25;;;;;;;4.20;84.59;93392.34;5030826;28;20223;-85
2020/12/29 05:24:12;;;;;;;1.20;1.10;;;;;;;3.98;84.08;93374.25;5058464;28;20021;-85
2020/12/29 05:26:38;;;;;;;1.30;1.20;;;;;;;4.09;84.79;93403.81;5040427;28;20119;-85
2020/12/29 05:29:06;;;;;;;1.25;1.15;;;;;;;3.76;84.51;93350.03;5040805;28;20029;-85
2020/12/29 05:31:33;;;;;;;1.27;1.13;;;;;;;3.96;85.02;93397.44;5040832;28;20029;-85
2020/12/29 05:33:59;;;;;;;1.95;1.30;;;;;;;3.97;85.13;93396.22;5040867;28;20431;-85
2020/12/29 05:36:25;;;;;;;0.90;0.90;;;;;;;3.87;85.01;93404.50;5058412;28;20033;-86
2020/12/29 05:38:55;;;;;;;6.00;3.85;;;;;;;4.18;85.14;93461.97;5058392;28;20407;-85
2020/12/29 05:41:22;;;;;;;6.03;3.50;;;;;;;3.85;85.72;93428.41;5058316;28;20031;-85
2020/12/29 05:44:02;;;;;;;5.70;3.88;;;;;;;3.97;86.23;93445.28;5058406;28;20113;-85
2020/12/29 05:46:28;;;;;;;9.07;3.60;;;;;;;4.03;86.85;93475.59;5040448;28;20115;-85
2020/12/29 05:48:55;;;;;;;4.50;2.80;;;;;;;4.11;86.57;93484.66;5040699;28;20024;-85
2020/12/29 05:51:22;;;;;;;9.70;4.40;;;;;;;3.72;86.40;93454.22;5040461;28;20370;-86
2020/12/29 05:53:47;;;;;;;4.53;2.53;;;;;;;4.05;86.43;93505.41;5060630;28;20053;-86
2020/12/29 05:56:13;;;;;;;3.72;2.85;;;;;;;3.96;87.05;93512.94;5060676;28;20348;-86
2020/12/29 05:58:41;;;;;;;4.78;4.03;;;;;;;3.83;86.95;93500.66;5077999;28;20152;-85
2020/12/29 06:01:08;;;;;;;6.68;3.97;;;;;;;3.24;87.17;93423.50;5057144;28;20013;-85
2020/12/29 06:03:34;;;;;;;5.53;4.10;;;;;;;3.84;86.57;93529.00;5057945;28;20083;-86
2020/12/29 06:06:06;;;;;;;15.55;6.95;;;;;;;3.74;86.44;93530.41;5057851;28;20033;-87
2020/12/29 06:08:35;;;;;;;10.05;5.88;;;;;;;3.84;86.25;93530.94;5040157;28;20108;-86
2020/12/29 06:11:04;;;;;;;13.48;7.10;;;;;;;3.94;86.86;93565.19;5052778;28;20049;-86
2020/12/29 06:13:37;;;;;;;9.88;6.15;;;;;;;3.89;86.49;93567.84;5077685;28;20058;-85
2020/12/29 06:16:04;;;;;;;8.98;6.35;;;;;;;3.80;86.58;93566.06;5060318;28;20032;-85
2020/12/29 06:18:35;;;;;;;8.52;5.80;;;;;;;3.98;86.78;93607.16;5053225;28;20033;-86
2020/12/29 06:21:06;;;;;;;11.02;6.35;;;;;;;3.98;85.49;93617.91;5040229;28;20032;-85
2020/12/29 06:23:55;;;;;;;21.38;12.98;;;;;;;4.04;85.44;93626.75;5054857;28;20419;-85
2020/12/29 06:26:21;;;;;;;3.95;2.97;;;;;;;3.86;85.05;93612.47;5053496;28;20020;-84
2020/12/29 06:28:53;;;;;;;5.15;3.47;;;;;;;3.86;83.96;93617.84;5038844;28;20036;-86
2020/12/29 06:31:28;;;;;;;3.28;2.95;;;;;;;3.96;83.93;93631.84;5048342;28;20494;-86
2020/12/29 06:33:56;;;;;;;4.00;3.60;;;;;;;3.93;84.13;93646.22;5057370;28;20021;-86
2020/12/29 06:36:25;;;;;;;3.67;2.70;;;;;;;3.68;83.87;93624.34;5057146;28;20021;-86
2020/12/29 06:38:52;;;;;;;2.75;2.50;;;;;;;3.99;83.77;93662.34;5047291;28;20024;-85
2020/12/29 06:41:21;;;;;;;3.42;3.13;;;;;;;3.74;83.57;93653.91;5039145;28;20052;-84
2020/12/29 06:43:47;;;;;;;4.45;3.63;;;;;;;3.60;83.61;93668.91;5050402;28;20025;-85
2020/12/29 06:46:15;;;;;;;5.35;4.57;;;;;;;3.39;84.28;93640.69;5032892;28;20348;-85
2020/12/29 06:48:42;;;;;;;7.90;6.13;;;;;;;3.55;83.93;93701.81;5043145;28;20029;-84
2020/12/29 06:51:12;;;;;;;6.75;5.55;;;;;;;3.57;84.10;93731.63;5032404;28;20028;-85
2020/12/29 06:53:42;;;;;;;3.53;2.60;;;;;;;3.32;80.91;93702.84;5036216;28;20087;-85
2020/12/29 06:56:15;;;;;;;6.43;1.42;;;;;;;3.46;79.34;93711.97;5032319;28;20049;-85
2020/12/29 06:58:40;;;;;;;1.20;1.10;;;;;;;3.81;79.20;93763.56;5050836;28;20112;-85
2020/12/29 07:01:25;;;;;;;1.30;1.10;;;;;;;3.83;80.42;93776.50;5048979;28;20108;-85
2020/12/29 07:04:02;;;;;;;2.53;1.50;;;;;;;3.60;79.94;93759.44;5033444;28;20029;-86
2020/12/29 07:06:34;;;;;;;1.33;1.20;;;;;;;3.90;79.28;93805.63;5048393;28;20120;-85
2020/12/29 07:09:23;;;;;;;1.38;1.15;;;;;;;3.82;78.09;93812.63;5049409;28;20029;-84
2020/12/29 07:12:07;;;;;;;3.13;2.13;;;;;;;3.87;77.49;93823.41;5037342;28;20029;-87
2020/12/29 07:14:35;;;;;;;2.47;1.70;;;;;;;3.83;78.73;93833.63;5032231;28;20030;-88
2020/12/29 07:17:05;;;;;;;3.08;2.50;;;;;;;3.84;79.22;93843.19;5038389;28;20028;-88
2020/12/29 07:19:31;;;;;;;1.63;1.48;;;;;;;3.20;79.86;93769.06;5055099;28;20028;-88
2020/12/29 07:21:57;;;;;;;1.58;1.48;;;;;;;3.58;75.59;93837.78;5039322;28;20327;-89
2020/12/29 07:24:28;;;;;;;2.08;1.67;;;;;;;3.54;75.01;93821.13;5039081;28;20075;-90
2020/12/29 07:26:57;;;;;;;3.45;1.75;;;;;;;4.17;84.90;93874.25;5056668;28;20052;-88
2020/12/29 07:29:22;;;;;;;4.75;1.35;;;;;;;4.17;75.55;93893.78;5039095;28;20029;-85
2020/12/29 07:31:48;;;;;;;0.70;0.70;;;;;;;4.19;75.00;93922.88;5056048;28;20094;-87
2020/12/29 07:34:14;;;;;;;0.98;0.93;;;;;;;3.99;76.62;93906.78;5038786;28;20021;-86
2020/12/29 07:36:46;;;;;;;1.20;1.10;;;;;;;4.04;78.67;93928.34;5038908;28;20355;-87
2020/12/29 07:39:13;;;;;;;1.70;1.17;;;;;;;3.88;79.74;93918.16;5044060;28;20040;-89
2020/12/29 07:41:39;;;;;;;2.42;2.10;;;;;;;4.06;75.49;93944.72;5037441;28;20025;-86
2020/12/29 07:44:04;;;;;;;2.17;1.60;;;;;;;3.81;76.28;93932.72;5033608;28;20021;-84
2020/12/29 07:46:31;;;;;;;1.55;1.38;;;;;;;3.80;76.33;93950.06;5038713;28;20029;-86
2020/12/29 07:48:59;;;;;;;1.35;1.25;;;;;;;3.59;74.51;93927.84;5056509;28;20316;-86
2020/12/29 07:51:24;;;;;;;1.10;1.00;;;;;;;3.92;73.38;93988.50;5040928;28;20082;-86
2020/12/29 07:53:50;;;;;;;1.40;1.23;;;;;;;3.83;77.82;93989.38;5060147;28;20028;-85
2020/12/29 07:56:15;;;;;;;2.80;2.03;;;;;;;3.62;72.20;93961.81;5060130;28;20028;-85
2020/12/29 07:58:41;;;;;;;5.70;3.50;;;;;;;3.88;71.00;93986.03;5059310;28;20057;-85
2020/12/29 08:01:07;;;;;;;3.92;2.33;;;;;;;3.82;73.85;93995.22;5042282;28;20036;-86
2020/12/29 08:03:33;;;;;;;3.30;2.38;;;;;;;3.83;70.06;94013.56;5041850;28;20082;-87
2020/12/29 08:05:58;;;;;;;4.63;3.65;;;;;;;3.67;70.89;94006.78;5038526;28;20108;-86
2020/12/29 08:08:24;;;;;;;4.43;2.60;;;;;;;3.68;72.60;94021.69;5059658;28;20060;-85
2020/12/29 08:10:50;;;;;;;5.90;4.30;;;;;;;3.44;71.50;93991.56;5033916;28;20036;-86
2020/12/29 08:13:19;;;;;;;3.40;2.20;;;;;;;3.84;69.68;94062.66;5054730;28;20017;-85
2020/12/29 08:15:47;;;;;;;3.13;2.67;;;;;;;3.86;68.02;94060.22;5050882;28;20033;-88
2020/12/29 08:18:20;;;;;;;10.45;7.57;;;;;;;3.81;69.26;94056.25;5056896;28;20029;-86
2020/12/29 08:20:48;;;;;;;3.80;3.17;;;;;;;3.89;68.75;94078.84;5047751;28;20325;-86
2020/12/29 08:23:17;;;;;;;4.78;3.75;;;;;;;3.64;68.15;94045.28;5055427;28;20032;-85
2020/12/29 08:25:56;;;;;;;3.42;2.70;;;;;;;3.78;68.73;94077.94;5045157;28;20036;-87
2020/12/29 08:28:25;;;;;;;3.58;2.30;;;;;;;3.82;68.96;94095.31;5037392;28;20428;-86
2020/12/29 08:30:51;;;;;;;2.80;2.60;;;;;;;3.70;69.30;94068.78;5059181;28;20056;-88
2020/12/29 08:33:21;;;;;;;2.75;2.10;;;;;;;4.07;68.46;94120.81;5038181;28;20017;-86
2020/12/29 08:35:49;;;;;;;1.65;1.25;;;;;;;4.02;69.52;94091.94;5054213;28;20507;-85
2020/12/29 08:38:31;;;;;;;2.97;2.67;;;;;;;3.97;65.30;94094.56;5058961;28;20033;-85
2020/12/29 08:41:08;;;;;;;2.30;2.00;;;;;;;4.16;65.44;94112.66;5038742;28;20021;-86
2020/12/29 08:43:45;;;;;;;1.70;1.52;;;;;;;4.22;67.87;94120.78;5033943;28;20056;-84
2020/12/29 08:46:13;;;;;;;1.75;1.40;;;;;;;4.26;67.56;94150.91;5040767;28;20024;-84
2020/12/29 08:48:40;;;;;;;2.55;1.40;;;;;;;4.09;72.04;94125.72;5030063;28;20017;-83
2020/12/29 08:51:18;;;;;;;2.47;1.58;;;;;;;4.36;71.45;94170.31;5037742;28;20025;-84
2020/12/29 08:53:43;;;;;;;3.83;1.92;;;;;;;4.24;70.78;94158.66;5059530;28;20467;-84
2020/12/29 08:56:25;;;;;;;4.10;2.78;;;;;;;4.33;70.15;94180.06;5056818;28;20045;-85
2020/12/29 08:58:52;;;;;;;3.92;2.72;;;;;;;4.27;71.10;94154.31;5031948;28;20094;-84
2020/12/29 09:01:37;;;;;;;3.28;2.03;;;;;;;4.27;72.94;94173.88;5037173;28;20034;-85
2020/12/29 09:04:27;;;;;;;3.60;2.40;;;;;;;4.27;74.49;94197.31;5032546;28;20026;-84
2020/12/29 09:06:59;;;;;;;3.90;2.45;;;;;;;4.34;72.65;94199.59;5033246;28;20044;-85
2020/12/29 09:09:25;;;;;;;2.15;1.73;;;;;;;4.35;71.02;94201.09;5053359;28;20036;-84
2020/12/29 09:12:16;;;;;;;4.55;2.10;;;;;;;4.44;73.46;94201.69;5037655;28;20033;-85
2020/12/29 09:15:01;;;;;;;1.67;1.20;;;;;;;4.45;70.85;94199.75;5040303;28;20014;-85
2020/12/29 09:17:35;;;;;;;2.40;1.42;;;;;;;4.37;71.43;94193.31;5037533;28;20029;-86
2020/12/29 09:20:13;;;;;;;1.70;1.35;;;;;;;4.52;71.83;94212.06;5029128;28;20025;-88
2020/12/29 09:23:01;;;;;;;1.65;1.40;;;;;;;4.57;73.33;94227.53;5033544;28;20310;-88
2020/12/29 09:25:32;;;;;;;1.20;1.10;;;;;;;4.55;68.94;94222.63;5032932;28;20356;-87
2020/12/29 09:28:18;;;;;;;1.30;1.20;;;;;;;4.69;71.37;94218.41;5037499;28;20116;-86
2020/12/29 09:31:04;;;;;;;1.88;1.13;;;;;;;4.60;70.59;94226.59;5037273;28;20032;-86
2020/12/29 09:33:31;;;;;;;1.27;1.10;;;;;;;4.35;68.40;94187.63;5038582;28;20080;-87
2020/12/29 09:36:02;;;;;;;1.80;1.00;;;;;;;4.56;67.54;94215.28;5038263;28;20029;-88
2020/12/29 09:38:28;;;;;;;;;;;;;;;4.61;68.61;94225.38;5037790;28;20043;-89
2020/12/29 09:40:54;;;;;;;1.42;1.30;;;;;;;4.67;69.59;94224.25;5037469;28;20360;-88
2020/12/29 09:43:21;;;;;;;2.05;1.40;;;;;;;4.55;71.62;94206.50;5037341;28;20053;-88
2020/12/29 09:45:47;;;;;;;1.33;1.10;;;;;;;4.67;68.63;94224.25;5037791;28;20055;-87
2020/12/29 09:48:13;;;;;;;1.75;1.10;;;;;;;4.62;67.59;94229.53;5037296;28;20492;-87
2020/12/29 09:50:39;;;;;;;1.45;1.30;;;;;;;4.75;68.93;94238.03;5038099;28;20023;-88
2020/12/29 09:53:04;;;;;;;1.23;1.13;;;;;;;4.81;68.86;94235.44;5044675;28;20372;-87
2020/12/29 09:55:29;;;;;;;1.20;0.95;;;;;;;4.51;68.93;94216.69;5038119;28;20033;-87
2020/12/29 09:57:56;;;;;;;2.22;1.30;;;;;;;4.55;70.38;94216.50;5034974;28;20041;-87
2020/12/29 10:00:22;;;;;;;1.95;1.30;;;;;;;4.65;69.63;94242.81;5041747;28;20026;-86
2020/12/29 10:02:49;;;;;;;2.35;1.30;;;;;;;4.45;70.54;94218.56;5049390;28;20432;-85
2020/12/29 10:05:15;;;;;;;2.35;1.20;;;;;;;4.63;70.63;94223.69;5044688;28;20032;-86
2020/12/29 10:07:44;;;;;;;2.15;1.60;;;;;;;4.40;69.65;94171.59;5042185;28;20115;-86
2020/12/29 10:10:09;;;;;;;2.00;1.60;;;;;;;4.41;69.30;94175.75;5042115;28;20420;-86
2020/12/29 10:12:35;;;;;;;2.60;1.83;;;;;;;4.67;69.39;94218.88;5057451;28;20104;-86
2020/12/29 10:15:00;;;;;;;3.65;2.28;;;;;;;4.66;71.00;94209.31;5057257;28;20627;-86
2020/12/29 10:17:26;;;;;;;2.78;2.03;;;;;;;4.78;69.79;94226.31;5036402;28;20017;-86
2020/12/29 10:19:51;;;;;;;2.85;2.15;;;;;;;4.70;70.31;94215.25;5039853;28;20328;-86
2020/12/29 10:22:17;;;;;;;2.17;1.90;;;;;;;4.60;69.28;94211.19;5058470;28;20021;-86
2020/12/29 10:24:42;;;;;;;1.90;1.45;;;;;;;4.10;69.03;94157.53;5047663;28;20032;-86
2020/12/29 10:27:08;;;;;;;1.65;1.40;;;;;;;4.73;69.05;94237.75;5056931;28;20113;-87
2020/12/29 10:29:33;;;;;;;4.07;2.67;;;;;;;4.63;70.03;94193.38;5057150;28;20036;-87
2020/12/29 10:31:59;;;;;;;3.38;1.80;;;;;;;4.70;69.71;94201.78;5056994;28;20194;-85
2020/12/29 10:34:24;;;;;;;4.65;2.10;;;;;;;4.66;81.70;94138.66;5057191;28;20409;-85
2020/12/29 10:36:49;;;;;;;2.10;1.50;;;;;;;5.02;68.27;94218.06;5056665;28;20037;-86
2020/12/29 10:39:15;;;;;;;2.40;1.80;;;;;;;5.23;67.71;94273.38;5056140;28;20074;-85
2020/12/29 10:41:41;;;;;;;1.70;1.60;;;;;;;5.11;67.38;94258.28;5039801;28;20424;-87
2020/12/29 10:44:08;;;;;;;2.05;1.67;;;;;;;5.23;67.41;94265.28;5039361;28;20067;-87
2020/12/29 10:46:34;;;;;;;2.72;1.98;;;;;;;5.28;73.09;94260.44;5039604;28;20028;-84
2020/12/29 10:49:00;;;;;;;3.85;1.83;;;;;;;5.07;68.18;94213.97;5056899;28;20078;-85
2020/12/29 10:51:26;;;;;;;2.30;1.50;;;;;;;5.66;68.96;94276.28;5039423;28;20021;-84
2020/12/29 10:53:53;;;;;;;2.75;1.92;;;;;;;5.26;67.41;94242.06;5052574;28;20032;-84
2020/12/29 10:56:19;;;;;;;2.10;1.52;;;;;;;5.22;67.46;94247.66;5039351;28;20056;-86
2020/12/29 10:58:45;;;;;;;2.28;2.08;;;;;;;5.21;67.64;94242.72;5037546;28;20045;-88
2020/12/29 11:01:12;;;;;;;2.05;1.70;;;;;;;5.16;68.16;94271.06;5057031;28;20036;-87
2020/12/29 11:03:39;;;;;;;3.10;2.00;;;;;;;5.35;68.97;94295.03;5039110;28;20151;-86
2020/12/29 11:06:15;;;;;;;2.10;1.90;;;;;;;5.21;100.00;94294.59;5038824;28;20025;-87
2020/12/29 11:08:40;;;;;;;4.70;2.63;;;;;;;5.05;67.89;94279.00;5038975;28;20032;-87
2020/12/29 11:11:06;;;;;;;5.05;3.42;;;;;;;4.97;68.59;94272.56;5039265;28;20051;-88
2020/12/29 11:13:32;;;;;;;5.07;3.40;;;;;;;4.68;68.29;94249.19;5056928;28;20028;-88
2020/12/29 11:15:57;;;;;;;9.80;4.40;;;;;;;4.70;69.73;94244.81;5038965;28;20417;-86
2020/12/29 11:18:23;;;;;;;9.80;6.28;;;;;;;5.07;67.90;94270.47;5039045;28;20021;-87
2020/12/29 11:20:52;;;;;;;10.35;6.38;;;;;;;4.69;67.49;94229.16;5039072;28;20025;-87
2020/12/29 11:23:18;;;;;;;45.55;22.85;;;;;;;5.28;69.06;94316.97;5056479;28;20050;-87
2020/12/29 11:25:44;;;;;;;9.98;6.55;;;;;;;4.65;68.86;94228.63;5040048;28;20409;-87
2020/12/29 11:28:10;;;;;;;3.50;2.58;;;;;;;4.65;68.86;94228.63;5042727;28;20068;-89
2020/12/29 11:30:35;;;;;;;4.05;3.15;;;;;;;4.62;69.79;94221.47;5043240;28;20392;-86
2020/12/29 11:33:01;;;;;;;3.30;2.22;;;;;;;5.31;68.07;94289.84;5043028;28;20277;-86
2020/12/29 11:35:26;;;;;;;2.20;1.80;;;;;;;5.29;100.00;87101.28;5060404;28;20055;-84
2020/12/29 11:37:52;;;;;;;2.63;2.35;;;;;;;5.14;67.09;94300.41;5037874;28;20036;-86
2020/12/29 11:40:18;;;;;;;3.78;2.40;;;;;;;5.17;67.50;94326.38;5041769;28;20057;-85
2020/12/29 11:42:43;;;;;;;5.10;2.88;;;;;;;4.99;100.00;68426.72;5041047;28;20036;-85
2020/12/29 11:45:09;;;;;;;3.25;2.20;;;;;;;5.04;68.46;94317.88;5039538;28;20143;-85